createdAt,value
2019-02-04T00:01:06.362Z,19.87
2019-02-04T00:03:35.669Z,22.50
2019-02-04T00:06:04.877Z,23.10
2019-02-04T00:08:33.812Z,19.43
2019-02-04T00:11:03.202Z,20.37
2019-02-04T00:13:32.162Z,21.13
2019-02-04T00:16:01.337Z,21.43
2019-02-04T00:18:30.541Z,18.50
2019-02-04T00:21:00.456Z,19.03
2019-02-04T00:23:29.757Z,23.90
2019-02-04T00:25:58.717Z,23.63
2019-02-04T00:28:27.661Z,22.20
2019-02-04T00:30:57.506Z,22.70
2019-02-04T00:33:26.420Z,26.73
2019-02-04T00:35:55.953Z,18.70
2019-02-04T00:38:24.957Z,21.03
2019-02-04T00:40:54.150Z,23.13
2019-02-04T00:43:23.163Z,20.77
2019-02-04T00:45:52.124Z,21.27
2019-02-04T00:48:21.945Z,19.70
2019-02-04T00:50:51.344Z,18.07
2019-02-04T00:53:20.381Z,16.00
2019-02-04T00:55:50.314Z,19.13
2019-02-04T00:58:19.386Z,20.10
2019-02-04T01:00:48.419Z,21.57
2019-02-04T01:03:17.530Z,17.80
2019-02-04T01:05:46.837Z,18.30
2019-02-04T01:08:16.001Z,21.27
2019-02-04T01:10:45.025Z,20.27
2019-02-04T01:13:13.988Z,20.43
2019-02-04T01:15:43.236Z,16.63
2019-02-04T01:18:12.630Z,18.17
2019-02-04T01:20:41.932Z,19.60
2019-02-04T01:23:10.966Z,17.97
2019-02-04T01:25:40.358Z,23.03
2019-02-04T01:28:09.373Z,20.03
2019-02-04T01:30:38.930Z,18.63
2019-02-04T01:33:07.882Z,20.27
2019-02-04T01:35:37.225Z,18.70
2019-02-04T01:38:06.530Z,20.27
2019-02-04T01:40:35.574Z,21.20
2019-02-04T01:43:04.586Z,19.07
2019-02-04T01:45:33.811Z,18.60
2019-02-04T01:48:03.323Z,19.80
2019-02-04T01:50:32.342Z,19.33
2019-02-04T01:53:01.373Z,19.93
2019-02-04T01:55:30.391Z,18.17
2019-02-04T01:57:59.710Z,20.53
2019-02-04T02:00:31.135Z,13.57
2019-02-04T02:03:00.164Z,14.80
2019-02-04T02:05:29.177Z,13.90
2019-02-04T02:07:58.297Z,12.83
2019-02-04T02:10:28.450Z,16.10
2019-02-04T02:12:57.857Z,15.97
2019-02-04T02:15:26.970Z,11.77
2019-02-04T02:17:55.986Z,11.60
2019-02-04T02:20:27.372Z,12.93
2019-02-04T02:22:56.385Z,11.53
2019-02-04T02:25:25.701Z,9.83
2019-02-04T02:27:54.989Z,8.63
2019-02-04T02:30:26.746Z,9.90
2019-02-04T02:32:55.995Z,8.20
2019-02-04T02:35:25.009Z,9.00
2019-02-04T02:37:53.993Z,7.27
2019-02-04T02:40:25.992Z,8.83
2019-02-04T02:42:55.097Z,6.13
2019-02-04T02:45:24.418Z,6.73
2019-02-04T02:47:53.437Z,8.90
2019-02-04T02:50:22.456Z,8.10
2019-02-04T02:52:51.793Z,6.93
2019-02-04T02:55:20.813Z,11.10
2019-02-04T02:57:49.845Z,7.67
2019-02-04T03:00:21.297Z,7.63
2019-02-04T03:02:50.888Z,8.87
2019-02-04T03:05:20.856Z,8.73
2019-02-04T03:07:49.879Z,8.60
2019-02-04T03:10:26.805Z,7.50
2019-02-04T03:12:56.136Z,7.03
2019-02-04T03:15:25.386Z,8.53
2019-02-04T03:17:54.657Z,6.63
2019-02-04T03:20:23.934Z,8.67
2019-02-04T03:22:53.639Z,7.00
2019-02-04T03:25:23.125Z,7.13
2019-02-04T03:27:52.344Z,6.67
2019-02-04T03:30:26.642Z,11.30
2019-02-04T03:32:55.802Z,9.60
2019-02-04T03:35:25.118Z,6.67
2019-02-04T03:37:54.564Z,6.20
2019-02-04T03:40:26.032Z,7.57
2019-02-04T03:42:55.055Z,6.53
2019-02-04T03:45:24.722Z,8.97
2019-02-04T03:48:04.328Z,5.73
2019-02-04T03:50:24.545Z,6.73
2019-02-04T03:52:54.262Z,6.47
2019-02-04T03:55:23.274Z,7.90
2019-02-04T03:57:52.306Z,6.97
2019-02-04T04:00:30.021Z,6.53
2019-02-04T04:02:59.243Z,6.03
2019-02-04T04:05:28.637Z,4.97
2019-02-04T04:07:58.051Z,4.80
2019-02-04T04:10:27.061Z,4.80
2019-02-04T04:12:56.022Z,5.50
2019-02-04T04:15:25.105Z,6.37
2019-02-04T04:17:54.434Z,4.90
2019-02-04T04:20:23.484Z,5.73
2019-02-04T04:22:52.846Z,6.07
2019-02-04T04:25:21.854Z,6.90
2019-02-04T04:27:50.824Z,4.37
2019-02-04T04:30:25.346Z,6.27
2019-02-04T04:32:55.360Z,5.87
2019-02-04T04:35:24.454Z,4.60
2019-02-04T04:37:54.165Z,4.03
2019-02-04T04:40:23.567Z,4.17
2019-02-04T04:42:52.526Z,5.30
2019-02-04T04:45:23.267Z,6.00
2019-02-04T04:47:52.578Z,4.93
2019-02-04T04:50:21.593Z,5.23
2019-02-04T04:52:50.685Z,7.47
2019-02-04T04:55:24.886Z,13.60
2019-02-04T04:57:54.610Z,5.37
2019-02-04T05:00:26.264Z,4.90
2019-02-04T05:02:55.666Z,6.20
2019-02-04T05:05:24.672Z,7.30
2019-02-04T05:07:53.626Z,6.53
2019-02-04T05:10:22.751Z,6.20
2019-02-04T05:12:52.462Z,7.57
2019-02-04T05:15:24.185Z,7.27
2019-02-04T05:17:53.541Z,5.20
2019-02-04T05:20:23.028Z,6.27
2019-02-04T05:22:52.147Z,7.90
2019-02-04T05:25:21.158Z,6.57
2019-02-04T05:27:50.211Z,5.37
2019-02-04T05:30:20.758Z,3.90
2019-02-04T05:32:49.793Z,4.37
2019-02-04T05:35:19.028Z,3.80
2019-02-04T05:37:48.052Z,4.97
2019-02-04T05:40:17.380Z,4.90
2019-02-04T05:42:47.146Z,4.70
2019-02-04T05:45:18.055Z,4.70
2019-02-04T05:47:47.121Z,4.67
2019-02-04T05:50:17.674Z,4.10
2019-02-04T05:52:47.136Z,4.07
2019-02-04T05:55:18.138Z,5.97
2019-02-04T05:57:47.153Z,5.40
2019-02-04T06:00:20.739Z,3.73
2019-02-04T06:02:49.941Z,5.13
2019-02-04T06:05:19.177Z,6.27
2019-02-04T06:07:48.189Z,6.20
2019-02-04T06:10:17.588Z,7.23
2019-02-04T06:12:46.619Z,7.40
2019-02-04T06:15:15.686Z,10.33
2019-02-04T06:17:44.560Z,5.37
2019-02-04T06:20:16.164Z,6.60
2019-02-04T06:22:45.474Z,6.87
2019-02-04T06:25:14.582Z,5.50
2019-02-04T06:27:44.176Z,5.67
2019-02-04T06:30:13.233Z,7.37
2019-02-04T06:32:42.774Z,6.20
2019-02-04T06:35:12.438Z,7.63
2019-02-04T06:37:41.792Z,5.20
2019-02-04T06:40:12.257Z,5.57
2019-02-04T06:42:41.396Z,5.13
2019-02-04T06:45:12.129Z,5.37
2019-02-04T06:47:41.139Z,10.10
2019-02-04T06:50:12.292Z,7.00
2019-02-04T06:52:41.674Z,4.63
2019-02-04T06:55:23.079Z,6.50
2019-02-04T06:57:52.480Z,7.97
2019-02-04T07:00:21.554Z,10.10
2019-02-04T07:02:50.978Z,5.17
2019-02-04T07:05:21.114Z,8.57
2019-02-04T07:07:50.520Z,7.10
2019-02-04T07:10:21.873Z,9.20
2019-02-04T07:12:51.048Z,11.07
2019-02-04T07:15:20.078Z,8.47
2019-02-04T07:17:49.745Z,9.50
2019-02-04T07:20:21.083Z,9.50
2019-02-04T07:22:50.032Z,9.90
2019-02-04T07:25:20.006Z,10.70
2019-02-04T07:27:49.042Z,7.97
2019-02-04T07:30:20.130Z,8.77
2019-02-04T07:32:49.293Z,8.97
2019-02-04T07:35:18.904Z,6.80
2019-02-04T07:37:47.963Z,7.60
2019-02-04T07:40:42.329Z,7.13
2019-02-04T07:43:11.942Z,8.10
2019-02-04T07:45:41.245Z,6.67
2019-02-04T07:48:10.576Z,9.57
2019-02-04T07:50:39.947Z,8.87
2019-02-04T07:53:08.968Z,7.93
2019-02-04T07:55:37.972Z,7.07
2019-02-04T07:58:07.477Z,10.00
2019-02-04T08:00:36.600Z,7.53
2019-02-04T08:03:05.633Z,8.77
2019-02-04T08:05:34.574Z,9.63
2019-02-04T08:08:03.608Z,9.23
2019-02-04T08:10:32.549Z,15.53
2019-02-04T08:13:02.347Z,11.40
2019-02-04T08:15:34.044Z,8.47
2019-02-04T08:18:03.105Z,6.70
2019-02-04T08:20:32.445Z,10.77
2019-02-04T08:23:01.778Z,7.27
2019-02-04T08:25:31.074Z,10.27
2019-02-04T08:28:00.330Z,6.90
2019-02-04T08:30:37.966Z,7.40
2019-02-04T08:33:06.462Z,8.63
2019-02-04T08:35:35.522Z,6.93
2019-02-04T08:38:04.734Z,7.27
2019-02-04T08:40:34.127Z,8.50
2019-02-04T08:43:03.553Z,6.27
2019-02-04T08:45:32.957Z,5.97
2019-02-04T08:48:01.991Z,6.00
2019-02-04T08:50:31.350Z,8.63
2019-02-04T08:53:00.754Z,7.47
2019-02-04T08:55:30.263Z,12.03
2019-02-04T08:57:59.292Z,8.47
2019-02-04T09:00:28.655Z,7.37
2019-02-04T09:02:57.682Z,5.13
2019-02-04T09:05:26.789Z,7.50
2019-02-04T09:07:56.173Z,6.90
2019-02-04T09:10:27.846Z,6.30
2019-02-04T09:12:57.209Z,5.87
2019-02-04T09:15:26.336Z,7.87
2019-02-04T09:17:55.734Z,13.20
2019-02-04T09:20:25.041Z,6.17
2019-02-04T09:22:54.165Z,6.50
2019-02-04T09:25:23.985Z,5.67
2019-02-04T09:27:53.551Z,3.70
2019-02-04T09:30:24.030Z,4.30
2019-02-04T09:32:53.362Z,5.10
2019-02-04T09:35:22.645Z,4.33
2019-02-04T09:37:52.061Z,6.77
2019-02-04T09:40:44.297Z,4.93
2019-02-04T09:43:13.441Z,6.33
2019-02-04T09:45:44.026Z,5.70
2019-02-04T09:48:19.084Z,6.13
2019-02-04T09:50:51.027Z,6.00
2019-02-04T09:53:20.133Z,4.50
2019-02-04T09:55:49.077Z,4.70
2019-02-04T09:58:18.073Z,6.13
2019-02-04T10:00:47.022Z,7.57
2019-02-04T10:03:16.301Z,9.60
2019-02-04T10:05:45.849Z,5.30
2019-02-04T10:08:15.514Z,7.40
2019-02-04T10:10:44.538Z,6.00
2019-02-04T10:13:13.571Z,25.20
2019-02-04T10:15:45.683Z,8.13
2019-02-04T10:18:13.972Z,6.53
2019-02-04T10:20:43.001Z,7.13
2019-02-04T10:23:12.102Z,4.90
2019-02-04T10:25:42.555Z,7.00
2019-02-04T10:28:12.677Z,8.10
2019-02-04T10:30:41.960Z,15.63
2019-02-04T10:33:11.209Z,13.10
2019-02-04T10:35:40.302Z,6.47
2019-02-04T10:38:09.373Z,7.77
2019-02-04T10:40:38.495Z,6.20
2019-02-04T10:43:07.937Z,7.07
2019-02-04T10:45:37.047Z,6.03
2019-02-04T10:48:06.526Z,5.50
2019-02-04T10:50:45.896Z,6.00
2019-02-04T10:53:08.984Z,5.63
2019-02-04T10:55:38.045Z,5.40
2019-02-04T10:58:09.112Z,6.83
2019-02-04T11:00:40.014Z,5.37
2019-02-04T11:03:09.093Z,10.20
2019-02-04T11:05:38.435Z,21.57
2019-02-04T11:08:08.562Z,6.53
2019-02-04T11:10:37.694Z,9.50
2019-02-04T11:13:09.992Z,6.30
2019-02-04T11:15:39.562Z,4.03
2019-02-04T11:18:09.423Z,4.13
2019-02-04T11:20:38.591Z,5.63
2019-02-04T11:23:08.926Z,5.13
2019-02-04T11:25:38.565Z,5.80
2019-02-04T11:28:09.020Z,4.37
2019-02-04T11:30:56.326Z,6.23
2019-02-04T11:33:25.433Z,4.80
2019-02-04T11:35:54.841Z,4.50
2019-02-04T11:38:24.235Z,6.50
2019-02-04T11:40:53.811Z,5.53
2019-02-04T11:43:22.752Z,4.90
2019-02-04T11:45:54.799Z,5.30
2019-02-04T11:48:22.846Z,7.50
2019-02-04T11:50:52.170Z,6.87
2019-02-04T11:53:31.918Z,6.83
2019-02-04T11:55:52.340Z,7.23
2019-02-04T11:58:21.362Z,6.47
2019-02-04T12:00:50.598Z,5.90
2019-02-04T12:03:19.613Z,12.30
2019-02-04T12:05:49.106Z,6.33
2019-02-04T12:08:19.518Z,6.70
2019-02-04T12:10:51.977Z,5.30
2019-02-04T12:13:21.116Z,9.00
2019-02-04T12:15:50.190Z,5.90
2019-02-04T12:18:19.242Z,6.80
2019-02-04T12:20:48.275Z,5.70
2019-02-04T12:23:17.383Z,10.17
2019-02-04T12:25:46.782Z,7.30
2019-02-04T12:28:16.004Z,8.93
2019-02-04T12:30:45.594Z,6.50
2019-02-04T12:33:14.641Z,6.80
2019-02-04T12:35:43.765Z,7.27
2019-02-04T12:38:13.263Z,7.20
2019-02-04T12:40:42.348Z,5.97
2019-02-04T12:43:11.985Z,6.63
2019-02-04T12:45:42.214Z,5.43
2019-02-04T12:48:11.450Z,7.73
2019-02-04T12:50:40.621Z,8.23
2019-02-04T12:53:10.551Z,8.30
2019-02-04T12:55:40.141Z,8.23
2019-02-04T12:58:13.390Z,13.10
2019-02-04T13:00:42.836Z,14.90
2019-02-04T13:03:11.925Z,10.43
2019-02-04T13:05:43.513Z,9.07
2019-02-04T13:08:12.830Z,8.97
2019-02-04T13:10:42.490Z,11.23
2019-02-04T13:13:14.143Z,11.93
2019-02-04T13:15:43.182Z,12.13
2019-02-04T13:18:12.564Z,10.47
2019-02-04T13:20:41.975Z,10.20
2019-02-04T13:23:11.248Z,10.00
2019-02-04T13:25:40.694Z,10.37
2019-02-04T13:28:19.137Z,9.97
2019-02-04T13:30:48.153Z,9.13
2019-02-04T13:33:17.696Z,8.50
2019-02-04T13:35:47.176Z,10.30
2019-02-04T13:38:16.466Z,10.07
2019-02-04T13:40:45.592Z,9.10
2019-02-04T13:43:14.976Z,9.60
2019-02-04T13:45:44.294Z,8.43
2019-02-04T13:48:13.667Z,11.40
2019-02-04T13:50:42.703Z,10.00
2019-02-04T13:53:11.804Z,7.70
2019-02-04T13:55:41.919Z,10.13
2019-02-04T13:58:11.389Z,7.30
2019-02-04T14:00:40.485Z,8.77
2019-02-04T14:03:10.499Z,15.37
2019-02-04T14:05:39.695Z,7.23
2019-02-04T14:08:08.812Z,8.20
2019-02-04T14:10:40.335Z,8.67
2019-02-04T14:13:09.654Z,9.90
2019-02-04T14:15:40.739Z,5.57
2019-02-04T14:18:10.498Z,7.90
2019-02-04T14:20:39.611Z,6.67
2019-02-04T14:23:09.102Z,6.37
2019-02-04T14:25:38.249Z,6.60
2019-02-04T14:28:07.296Z,9.13
2019-02-04T14:30:37.816Z,6.57
2019-02-04T14:33:07.274Z,8.70
2019-02-04T14:35:36.302Z,9.57
2019-02-04T14:38:07.047Z,7.10
2019-02-04T14:40:36.474Z,7.03
2019-02-04T14:43:36.378Z,7.03
2019-02-04T14:46:23.188Z,5.67
2019-02-04T14:49:39.902Z,5.77
2019-02-04T14:52:33.480Z,7.00
2019-02-04T14:55:39.775Z,8.50
2019-02-04T14:58:33.370Z,16.40
2019-02-04T15:01:20.229Z,28.63
2019-02-04T15:04:05.458Z,25.07
2019-02-04T15:07:00.096Z,19.10
2019-02-04T15:10:02.864Z,9.17
2019-02-04T15:13:22.265Z,8.13
2019-02-04T15:16:25.129Z,10.70
2019-02-04T15:19:30.800Z,7.73
2019-02-04T15:22:33.118Z,10.00
2019-02-04T15:25:33.518Z,12.00
2019-02-04T15:28:22.260Z,6.93
2019-02-04T15:31:27.065Z,8.60
2019-02-04T15:34:20.039Z,7.33
2019-02-04T15:37:03.383Z,9.87
2019-02-04T15:40:16.827Z,9.73
2019-02-04T15:43:45.401Z,11.50
2019-02-04T15:46:58.010Z,11.97
2019-02-04T15:50:07.066Z,11.57
2019-02-04T15:52:45.097Z,10.57
2019-02-04T15:55:11.083Z,11.67
2019-02-04T15:57:40.380Z,10.13
2019-02-04T16:00:10.775Z,9.63
2019-02-04T16:02:39.842Z,13.40
2019-02-04T16:05:09.993Z,13.70
2019-02-04T16:07:39.842Z,10.50
2019-02-04T16:10:12.115Z,16.27
2019-02-04T16:12:41.090Z,11.73
2019-02-04T16:15:11.653Z,13.20
2019-02-04T16:17:41.138Z,11.43
2019-02-04T16:20:14.210Z,14.10
2019-02-04T16:22:43.323Z,16.70
2019-02-04T16:25:12.881Z,11.60
2019-02-04T16:27:41.906Z,16.73
2019-02-04T16:30:14.150Z,12.67
2019-02-04T16:32:43.246Z,14.00
2019-02-04T16:35:16.370Z,15.60
2019-02-04T16:37:45.399Z,17.97
2019-02-04T16:40:16.672Z,13.80
2019-02-04T16:42:45.838Z,13.77
2019-02-04T16:45:16.630Z,14.67
2019-02-04T16:47:45.737Z,14.27
2019-02-04T16:50:20.507Z,11.30
2019-02-04T16:52:49.558Z,12.80
2019-02-04T16:55:18.574Z,14.33
2019-02-04T16:57:47.593Z,14.40
2019-02-04T17:00:19.788Z,15.80
2019-02-04T17:02:49.189Z,13.00
2019-02-04T17:05:18.623Z,16.27
2019-02-04T17:07:47.644Z,18.43
2019-02-04T17:10:18.655Z,16.60
2019-02-04T17:12:48.091Z,15.43
2019-02-04T17:15:17.117Z,20.07
2019-02-04T17:17:46.843Z,15.47
2019-02-04T17:20:27.627Z,15.27
2019-02-04T17:22:57.173Z,17.70
2019-02-04T17:25:26.206Z,15.60
2019-02-04T17:27:55.253Z,14.13
2019-02-04T17:30:24.968Z,15.50
2019-02-04T17:32:54.090Z,15.40
2019-02-04T17:35:23.251Z,17.40
2019-02-04T17:37:52.347Z,14.00
2019-02-04T17:40:22.289Z,12.77
2019-02-04T17:42:52.577Z,19.70
2019-02-04T17:45:21.706Z,15.07
2019-02-04T17:47:50.966Z,16.13
2019-02-04T17:50:20.597Z,13.90
2019-02-04T17:52:49.994Z,22.60
2019-02-04T17:55:20.629Z,19.40
2019-02-04T17:57:49.662Z,17.50
2019-02-04T18:00:25.037Z,14.87
2019-02-04T18:02:54.140Z,17.37
2019-02-04T18:05:23.717Z,16.53
2019-02-04T18:07:53.713Z,16.47
2019-02-04T18:10:23.012Z,16.93
2019-02-04T18:12:52.380Z,14.20
2019-02-04T18:15:22.009Z,17.20
2019-02-04T18:17:51.496Z,18.00
2019-02-04T18:20:20.905Z,17.53
2019-02-04T18:22:49.908Z,16.03
2019-02-04T18:25:19.508Z,18.70
2019-02-04T18:27:52.228Z,17.03
2019-02-04T18:30:22.738Z,16.03
2019-02-04T18:32:51.731Z,17.73
2019-02-04T18:35:21.111Z,19.73
2019-02-04T18:37:50.516Z,20.23
2019-02-04T18:40:20.894Z,15.47
2019-02-04T18:42:50.703Z,17.73
2019-02-04T18:45:26.543Z,16.83
2019-02-04T18:47:55.649Z,15.93
2019-02-04T18:50:25.371Z,17.40
2019-02-04T18:52:54.709Z,17.33
2019-02-04T18:55:27.084Z,19.03
2019-02-04T18:57:56.381Z,17.53
2019-02-04T19:00:28.549Z,14.33
2019-02-04T19:02:58.332Z,13.80
2019-02-04T19:05:27.362Z,15.50
2019-02-04T19:07:56.314Z,18.17
2019-02-04T19:10:25.655Z,13.50
2019-02-04T19:12:54.949Z,16.13
2019-02-04T19:15:24.420Z,16.63
2019-02-04T19:17:55.802Z,13.60
2019-02-04T19:20:24.923Z,17.70
2019-02-04T19:22:53.966Z,11.77
2019-02-04T19:25:23.010Z,13.33
2019-02-04T19:27:52.070Z,12.60
2019-02-04T19:30:42.599Z,13.47
2019-02-04T19:33:11.561Z,15.03
2019-02-04T19:35:40.982Z,12.50
2019-02-04T19:38:10.299Z,10.63
2019-02-04T19:40:39.600Z,10.50
2019-02-04T19:43:08.694Z,13.80
2019-02-04T19:45:37.982Z,10.87
2019-02-04T19:48:07.108Z,12.90
2019-02-04T19:50:36.137Z,12.60
2019-02-04T19:53:06.042Z,14.90
2019-02-04T19:55:35.387Z,18.20
2019-02-04T19:58:04.635Z,14.67
2019-02-04T20:00:33.990Z,17.63
2019-02-04T20:03:03.292Z,17.33
2019-02-04T20:05:32.532Z,18.53
2019-02-04T20:08:02.033Z,18.20
2019-02-04T20:10:32.898Z,20.23
2019-02-04T20:13:02.406Z,20.43
2019-02-04T20:15:31.536Z,16.60
2019-02-04T20:18:00.913Z,19.17
2019-02-04T20:20:30.278Z,19.67
2019-02-04T20:23:00.001Z,19.80
2019-02-04T20:25:29.949Z,16.83
2019-02-04T20:27:59.430Z,17.57
2019-02-04T20:30:44.702Z,17.53
2019-02-04T20:33:04.341Z,20.00
2019-02-04T20:35:33.370Z,17.77
2019-02-04T20:38:02.658Z,18.60
2019-02-04T20:40:31.744Z,20.40
2019-02-04T20:43:01.599Z,24.03
2019-02-04T20:45:30.927Z,19.87
2019-02-04T20:48:00.165Z,18.87
2019-02-04T20:50:35.052Z,23.30
2019-02-04T20:53:04.425Z,18.63
2019-02-04T20:55:33.446Z,20.63
2019-02-04T20:58:02.748Z,14.40
2019-02-04T21:00:31.894Z,13.43
2019-02-04T21:03:02.062Z,14.20
2019-02-04T21:05:31.325Z,13.03
2019-02-04T21:08:00.350Z,13.03
2019-02-04T21:10:29.385Z,12.50
2019-02-04T21:12:59.454Z,14.40
2019-02-04T21:15:28.783Z,16.50
2019-02-04T21:17:57.813Z,19.77
2019-02-04T21:20:27.223Z,25.03
2019-02-04T21:22:56.245Z,25.03
2019-02-04T21:25:25.298Z,28.30
2019-02-04T21:27:54.993Z,24.43
2019-02-04T21:30:32.502Z,27.20
2019-02-04T21:33:01.870Z,23.37
2019-02-04T21:35:31.223Z,20.10
2019-02-04T21:38:00.241Z,24.13
2019-02-04T21:40:29.625Z,21.53
2019-02-04T21:42:58.893Z,18.90
2019-02-04T21:45:28.021Z,26.47
2019-02-04T21:47:57.754Z,22.50
2019-02-04T21:50:27.649Z,26.67
2019-02-04T21:52:57.100Z,23.47
2019-02-04T21:55:26.501Z,21.70
2019-02-04T21:57:55.440Z,19.37
2019-02-04T22:00:29.903Z,13.20
2019-02-04T22:02:59.622Z,15.20
2019-02-04T22:05:30.379Z,14.30
2019-02-04T22:07:59.489Z,20.03
2019-02-04T22:10:29.466Z,17.33
2019-02-04T22:12:59.183Z,15.97
2019-02-04T22:15:28.685Z,15.43
2019-02-04T22:17:57.777Z,18.67
2019-02-04T22:20:27.488Z,15.37
2019-02-04T22:22:56.498Z,16.73
2019-02-04T22:25:25.710Z,20.50
2019-02-04T22:27:54.809Z,19.63
2019-02-04T22:30:25.805Z,20.00
2019-02-04T22:32:54.760Z,14.23
2019-02-04T22:35:24.122Z,22.47
2019-02-04T22:37:53.522Z,17.40
2019-02-04T22:40:25.258Z,20.00
2019-02-04T22:42:54.268Z,21.10
2019-02-04T22:45:23.698Z,21.97
2019-02-04T22:47:53.637Z,25.03
2019-02-04T22:50:24.666Z,21.47
2019-02-04T22:52:54.036Z,21.70
2019-02-04T22:55:31.673Z,21.17
2019-02-04T22:57:54.009Z,23.47
2019-02-04T23:00:46.467Z,24.63
2019-02-04T23:03:16.601Z,19.33
2019-02-04T23:05:45.752Z,12.87
2019-02-04T23:08:14.848Z,15.03
2019-02-04T23:10:44.221Z,12.43
2019-02-04T23:13:13.200Z,12.27
2019-02-04T23:15:42.563Z,15.30
2019-02-04T23:18:12.230Z,17.47
2019-02-04T23:20:41.266Z,21.90
2019-02-04T23:23:10.282Z,20.37
2019-02-04T23:25:43.445Z,21.40
2019-02-04T23:28:10.030Z,19.20
2019-02-04T23:30:39.058Z,21.43
2019-02-04T23:33:08.772Z,20.50
2019-02-04T23:35:37.879Z,18.57
2019-02-04T23:38:06.890Z,21.70
2019-02-04T23:40:35.913Z,17.63
2019-02-04T23:43:05.449Z,20.07
2019-02-04T23:45:34.901Z,19.33
2019-02-04T23:48:04.553Z,23.73
2019-02-04T23:50:33.765Z,20.37
2019-02-04T23:53:02.709Z,22.20
2019-02-04T23:55:31.673Z,26.73
2019-02-04T23:58:01.452Z,25.53
